sensor_id;sensor_type;location;lat;lon;timestamp;temperature;humidity
21508;DHT22;10915;54.352;9.074;2023-10-09T00:01:06;11.20;99.90
21508;DHT22;10915;54.352;9.074;2023-10-09T00:03:40;11.30;99.90
21508;DHT22;10915;54.352;9.074;2023-10-09T00:06:06;11.30;99.90
21508;DHT22;10915;54.352;9.074;2023-10-09T00:08:33;11.30;99.90
21508;DHT22;10915;54.352;9.074;2023-10-09T00:11:01;11.20;99.90
21508;DHT22;10915;54.352;9.074;2023-10-09T00:13:41;11.20;99.90
21508;DHT22;10915;54.352;9.074;2023-10-09T00:16:21;11.10;99.90
21508;DHT22;10915;54.352;9.074;2023-10-09T00:19:01;11.10;99.90
21508;DHT22;10915;54.352;9.074;2023-10-09T00:21:43;11.10;99.90
21508;DHT22;10915;54.352;9.074;2023-10-09T00:24:09;11.00;99.90
21508;DHT22;10915;54.352;9.074;2023-10-09T00:26:50;11.00;99.90
21508;DHT22;10915;54.352;9.074;2023-10-09T00:29:17;11.10;99.90
21508;DHT22;10915;54.352;9.074;2023-10-09T00:31:52;11.10;99.90
21508;DHT22;10915;54.352;9.074;2023-10-09T00:34:41;11.00;99.90
21508;DHT22;10915;54.352;9.074;2023-10-09T00:37:10;11.10;99.90
21508;DHT22;10915;54.352;9.074;2023-10-09T00:39:42;11.10;99.90
21508;DHT22;10915;54.352;9.074;2023-10-09T00:42:10;11.10;99.90
21508;DHT22;10915;54.352;9.074;2023-10-09T00:44:38;10.90;99.90
21508;DHT22;10915;54.352;9.074;2023-10-09T00:47:17;10.90;99.90
21508;DHT22;10915;54.352;9.074;2023-10-09T00:49:58;10.90;99.90
21508;DHT22;10915;54.352;9.074;2023-10-09T00:52:30;11.00;99.90
21508;DHT22;10915;54.352;9.074;2023-10-09T00:55:10;11.00;99.90
21508;DHT22;10915;54.352;9.074;2023-10-09T00:57:41;11.00;99.90
21508;DHT22;10915;54.352;9.074;2023-10-09T01:00:08;10.90;99.90
21508;DHT22;10915;54.352;9.074;2023-10-09T01:03:04;10.90;99.90
21508;DHT22;10915;54.352;9.074;2023-10-09T01:05:38;10.90;99.90
21508;DHT22;10915;54.352;9.074;2023-10-09T01:08:11;10.90;99.90
21508;DHT22;10915;54.352;9.074;2023-10-09T01:10:49;10.90;99.90
21508;DHT22;10915;54.352;9.074;2023-10-09T01:13:23;10.90;99.90
21508;DHT22;10915;54.352;9.074;2023-10-09T01:15:54;10.80;99.90
21508;DHT22;10915;54.352;9.074;2023-10-09T01:18:25;10.80;99.90
21508;DHT22;10915;54.352;9.074;2023-10-09T01:20:57;10.90;99.90
21508;DHT22;10915;54.352;9.074;2023-10-09T01:23:23;10.90;99.90
21508;DHT22;10915;54.352;9.074;2023-10-09T01:25:49;10.80;99.90
21508;DHT22;10915;54.352;9.074;2023-10-09T01:28:15;10.80;99.90
21508;DHT22;10915;54.352;9.074;2023-10-09T01:30:42;10.80;99.90
21508;DHT22;10915;54.352;9.074;2023-10-09T01:33:09;10.80;99.90
21508;DHT22;10915;54.352;9.074;2023-10-09T01:35:48;10.70;99.90
21508;DHT22;10915;54.352;9.074;2023-10-09T01:38:15;10.70;99.90
21508;DHT22;10915;54.352;9.074;2023-10-09T01:40:41;10.70;99.90
21508;DHT22;10915;54.352;9.074;2023-10-09T01:43:08;10.70;99.90
21508;DHT22;10915;54.352;9.074;2023-10-09T01:45:38;10.60;99.90
21508;DHT22;10915;54.352;9.074;2023-10-09T01:48:12;10.60;99.90
21508;DHT22;10915;54.352;9.074;2023-10-09T01:50:40;10.60;99.90
21508;DHT22;10915;54.352;9.074;2023-10-09T01:53:08;10.60;99.90
21508;DHT22;10915;54.352;9.074;2023-10-09T01:55:34;10.60;99.90
21508;DHT22;10915;54.352;9.074;2023-10-09T01:58:00;10.70;99.90
21508;DHT22;10915;54.352;9.074;2023-10-09T02:00:31;10.70;99.90
21508;DHT22;10915;54.352;9.074;2023-10-09T02:03:00;10.60;99.90
21508;DHT22;10915;54.352;9.074;2023-10-09T02:05:30;10.60;99.90
21508;DHT22;10915;54.352;9.074;2023-10-09T02:07:59;10.60;99.90
21508;DHT22;10915;54.352;9.074;2023-10-09T02:10:27;10.70;99.90
21508;DHT22;10915;54.352;9.074;2023-10-09T02:12:55;10.70;99.90
21508;DHT22;10915;54.352;9.074;2023-10-09T02:15:28;10.70;99.90
21508;DHT22;10915;54.352;9.074;2023-10-09T02:18:10;10.60;99.90
21508;DHT22;10915;54.352;9.074;2023-10-09T02:20:43;10.60;99.90
21508;DHT22;10915;54.352;9.074;2023-10-09T02:23:11;10.60;99.90
21508;DHT22;10915;54.352;9.074;2023-10-09T02:25:40;10.60;99.90
21508;DHT22;10915;54.352;9.074;2023-10-09T02:28:09;10.60;99.90
21508;DHT22;10915;54.352;9.074;2023-10-09T02:30:45;10.60;99.90
21508;DHT22;10915;54.352;9.074;2023-10-09T02:33:16;10.70;99.90
21508;DHT22;10915;54.352;9.074;2023-10-09T02:35:54;10.80;99.90
21508;DHT22;10915;54.352;9.074;2023-10-09T02:38:20;10.70;99.90
21508;DHT22;10915;54.352;9.074;2023-10-09T02:40:52;10.80;99.90
21508;DHT22;10915;54.352;9.074;2023-10-09T02:43:34;10.70;99.90
21508;DHT22;10915;54.352;9.074;2023-10-09T02:46:21;10.80;99.90
21508;DHT22;10915;54.352;9.074;2023-10-09T02:48:55;10.70;99.90
21508;DHT22;10915;54.352;9.074;2023-10-09T02:51:23;10.70;99.90
21508;DHT22;10915;54.352;9.074;2023-10-09T02:53:52;10.70;99.90
21508;DHT22;10915;54.352;9.074;2023-10-09T02:56:18;10.70;99.90
21508;DHT22;10915;54.352;9.074;2023-10-09T02:58:52;10.70;99.90
21508;DHT22;10915;54.352;9.074;2023-10-09T03:01:18;10.70;99.90
21508;DHT22;10915;54.352;9.074;2023-10-09T03:03:44;10.70;99.90
21508;DHT22;10915;54.352;9.074;2023-10-09T03:06:11;10.70;99.90
21508;DHT22;10915;54.352;9.074;2023-10-09T03:08:38;10.70;99.90
21508;DHT22;10915;54.352;9.074;2023-10-09T03:11:07;10.80;99.90
21508;DHT22;10915;54.352;9.074;2023-10-09T03:13:44;10.80;99.90
21508;DHT22;10915;54.352;9.074;2023-10-09T03:16:11;10.90;99.90
21508;DHT22;10915;54.352;9.074;2023-10-09T03:18:50;10.90;99.90
21508;DHT22;10915;54.352;9.074;2023-10-09T03:21:16;11.00;99.90
21508;DHT22;10915;54.352;9.074;2023-10-09T03:23:48;10.90;99.90
21508;DHT22;10915;54.352;9.074;2023-10-09T03:26:18;10.90;99.90
21508;DHT22;10915;54.352;9.074;2023-10-09T03:28:46;10.90;99.90
21508;DHT22;10915;54.352;9.074;2023-10-09T03:31:12;10.90;99.90
21508;DHT22;10915;54.352;9.074;2023-10-09T03:33:38;10.80;99.90
21508;DHT22;10915;54.352;9.074;2023-10-09T03:36:04;10.80;99.90
21508;DHT22;10915;54.352;9.074;2023-10-09T03:38:37;10.90;99.90
21508;DHT22;10915;54.352;9.074;2023-10-09T03:41:04;10.90;99.90
21508;DHT22;10915;54.352;9.074;2023-10-09T03:43:37;10.90;99.90
21508;DHT22;10915;54.352;9.074;2023-10-09T03:46:08;10.90;99.90
21508;DHT22;10915;54.352;9.074;2023-10-09T03:48:54;10.90;99.90
21508;DHT22;10915;54.352;9.074;2023-10-09T03:51:22;10.90;99.90
21508;DHT22;10915;54.352;9.074;2023-10-09T03:53:49;10.90;99.90
21508;DHT22;10915;54.352;9.074;2023-10-09T03:56:15;10.90;99.90
21508;DHT22;10915;54.352;9.074;2023-10-09T03:58:45;10.90;99.90
21508;DHT22;10915;54.352;9.074;2023-10-09T06:31:41;11.20;99.90
21508;DHT22;10915;54.352;9.074;2023-10-09T07:25:29;11.60;99.90
21508;DHT22;10915;54.352;9.074;2023-10-09T07:28:41;11.60;99.90
21508;DHT22;10915;54.352;9.074;2023-10-09T10:41:12;13.10;99.90
21508;DHT22;10915;54.352;9.074;2023-10-09T10:43:46;13.10;99.90
21508;DHT22;10915;54.352;9.074;2023-10-09T10:46:19;13.20;99.90
21508;DHT22;10915;54.352;9.074;2023-10-09T10:49:16;13.30;99.90
21508;DHT22;10915;54.352;9.074;2023-10-09T10:52:14;13.30;99.90
21508;DHT22;10915;54.352;9.074;2023-10-09T10:54:43;13.30;99.90
21508;DHT22;10915;54.352;9.074;2023-10-09T10:57:21;13.30;99.90
21508;DHT22;10915;54.352;9.074;2023-10-09T11:00:11;13.30;99.90
21508;DHT22;10915;54.352;9.074;2023-10-09T11:03:36;13.30;99.90
21508;DHT22;10915;54.352;9.074;2023-10-09T11:06:28;13.30;99.90
21508;DHT22;10915;54.352;9.074;2023-10-09T11:09:05;13.20;99.90
21508;DHT22;10915;54.352;9.074;2023-10-09T11:11:36;13.20;99.90
21508;DHT22;10915;54.352;9.074;2023-10-09T11:14:13;13.20;99.90
21508;DHT22;10915;54.352;9.074;2023-10-09T11:16:43;13.10;99.90
21508;DHT22;10915;54.352;9.074;2023-10-09T11:19:14;13.00;99.90
21508;DHT22;10915;54.352;9.074;2023-10-09T11:21:53;12.90;99.90
21508;DHT22;10915;54.352;9.074;2023-10-09T11:24:33;12.90;99.90
21508;DHT22;10915;54.352;9.074;2023-10-09T11:27:02;13.00;99.90
21508;DHT22;10915;54.352;9.074;2023-10-09T11:29:48;13.00;99.90
21508;DHT22;10915;54.352;9.074;2023-10-09T11:32:18;12.90;99.90
21508;DHT22;10915;54.352;9.074;2023-10-09T11:34:45;13.00;99.90
21508;DHT22;10915;54.352;9.074;2023-10-09T11:37:21;13.10;99.90
21508;DHT22;10915;54.352;9.074;2023-10-09T11:39:57;13.10;99.90
21508;DHT22;10915;54.352;9.074;2023-10-09T11:42:24;13.10;99.90
21508;DHT22;10915;54.352;9.074;2023-10-09T11:45:26;13.10;99.90
21508;DHT22;10915;54.352;9.074;2023-10-09T11:47:52;13.10;99.90
21508;DHT22;10915;54.352;9.074;2023-10-09T11:53:08;13.30;99.90
21508;DHT22;10915;54.352;9.074;2023-10-09T11:55:35;13.30;99.90
21508;DHT22;10915;54.352;9.074;2023-10-09T11:58:02;13.30;99.90
21508;DHT22;10915;54.352;9.074;2023-10-09T12:00:30;13.30;99.90
21508;DHT22;10915;54.352;9.074;2023-10-09T12:03:00;13.10;99.90
21508;DHT22;10915;54.352;9.074;2023-10-09T12:05:33;13.10;99.90
21508;DHT22;10915;54.352;9.074;2023-10-09T12:07:59;13.10;99.90
21508;DHT22;10915;54.352;9.074;2023-10-09T12:10:27;13.20;99.90
21508;DHT22;10915;54.352;9.074;2023-10-09T12:12:53;13.20;99.90
21508;DHT22;10915;54.352;9.074;2023-10-09T12:15:19;13.20;99.90
21508;DHT22;10915;54.352;9.074;2023-10-09T12:17:46;13.20;99.90
21508;DHT22;10915;54.352;9.074;2023-10-09T12:20:14;13.20;99.90
21508;DHT22;10915;54.352;9.074;2023-10-09T12:22:56;13.30;99.90
21508;DHT22;10915;54.352;9.074;2023-10-09T12:25:23;13.40;99.90
21508;DHT22;10915;54.352;9.074;2023-10-09T12:27:49;13.50;99.90
21508;DHT22;10915;54.352;9.074;2023-10-09T12:30:14;13.50;99.90
21508;DHT22;10915;54.352;9.074;2023-10-09T12:32:40;13.50;99.90
21508;DHT22;10915;54.352;9.074;2023-10-09T12:35:06;13.60;99.90
21508;DHT22;10915;54.352;9.074;2023-10-09T12:37:43;13.60;99.90
21508;DHT22;10915;54.352;9.074;2023-10-09T12:40:09;13.70;99.90
21508;DHT22;10915;54.352;9.074;2023-10-09T12:42:36;13.70;99.90
21508;DHT22;10915;54.352;9.074;2023-10-09T12:45:02;13.70;99.90
21508;DHT22;10915;54.352;9.074;2023-10-09T12:47:34;13.60;99.90
21508;DHT22;10915;54.352;9.074;2023-10-09T12:50:05;13.60;99.90
21508;DHT22;10915;54.352;9.074;2023-10-09T12:52:39;13.70;99.90
21508;DHT22;10915;54.352;9.074;2023-10-09T12:55:05;13.80;99.90
21508;DHT22;10915;54.352;9.074;2023-10-09T12:57:33;13.80;99.90
21508;DHT22;10915;54.352;9.074;2023-10-09T12:59:59;13.90;99.90
21508;DHT22;10915;54.352;9.074;2023-10-09T13:02:25;14.00;99.90
21508;DHT22;10915;54.352;9.074;2023-10-09T13:04:59;13.90;99.90
21508;DHT22;10915;54.352;9.074;2023-10-09T13:07:30;13.80;99.90
21508;DHT22;10915;54.352;9.074;2023-10-09T13:09:56;13.70;99.90
21508;DHT22;10915;54.352;9.074;2023-10-09T13:12:34;13.70;99.90
21508;DHT22;10915;54.352;9.074;2023-10-09T13:15:07;13.80;99.90
21508;DHT22;10915;54.352;9.074;2023-10-09T13:17:36;13.80;99.90
21508;DHT22;10915;54.352;9.074;2023-10-09T13:20:02;13.90;99.90
21508;DHT22;10915;54.352;9.074;2023-10-09T13:22:41;13.90;99.90
21508;DHT22;10915;54.352;9.074;2023-10-09T13:25:10;13.90;99.90
21508;DHT22;10915;54.352;9.074;2023-10-09T13:27:45;13.80;99.90
21508;DHT22;10915;54.352;9.074;2023-10-09T13:30:19;13.80;99.90
21508;DHT22;10915;54.352;9.074;2023-10-09T13:32:49;13.90;99.90
21508;DHT22;10915;54.352;9.074;2023-10-09T13:35:18;14.00;99.90
21508;DHT22;10915;54.352;9.074;2023-10-09T13:37:45;14.00;99.90
21508;DHT22;10915;54.352;9.074;2023-10-09T13:40:22;14.00;99.90
21508;DHT22;10915;54.352;9.074;2023-10-09T13:42:54;14.00;99.90
21508;DHT22;10915;54.352;9.074;2023-10-09T13:45:27;13.90;99.90
21508;DHT22;10915;54.352;9.074;2023-10-09T13:47:56;13.90;99.90
21508;DHT22;10915;54.352;9.074;2023-10-09T13:50:25;14.00;99.90
21508;DHT22;10915;54.352;9.074;2023-10-09T13:52:57;14.00;99.90
21508;DHT22;10915;54.352;9.074;2023-10-09T13:55:23;14.10;99.90
21508;DHT22;10915;54.352;9.074;2023-10-09T13:57:57;14.20;99.90
21508;DHT22;10915;54.352;9.074;2023-10-09T14:00:23;14.30;99.90
21508;DHT22;10915;54.352;9.074;2023-10-09T14:03:00;14.30;99.90
21508;DHT22;10915;54.352;9.074;2023-10-09T14:05:37;14.30;99.90
21508;DHT22;10915;54.352;9.074;2023-10-09T14:08:08;14.20;99.90
21508;DHT22;10915;54.352;9.074;2023-10-09T14:10:37;14.20;99.90
21508;DHT22;10915;54.352;9.074;2023-10-09T14:13:04;14.20;99.90
21508;DHT22;10915;54.352;9.074;2023-10-09T14:15:37;14.30;99.90
21508;DHT22;10915;54.352;9.074;2023-10-09T14:18:06;14.30;99.90
21508;DHT22;10915;54.352;9.074;2023-10-09T14:20:34;14.30;99.90
21508;DHT22;10915;54.352;9.074;2023-10-09T14:23:01;14.30;99.90
21508;DHT22;10915;54.352;9.074;2023-10-09T14:25:36;14.30;99.90
21508;DHT22;10915;54.352;9.074;2023-10-09T14:28:06;14.30;99.90
21508;DHT22;10915;54.352;9.074;2023-10-09T14:30:36;14.20;99.90
21508;DHT22;10915;54.352;9.074;2023-10-09T14:33:08;14.30;99.90
21508;DHT22;10915;54.352;9.074;2023-10-09T14:35:41;14.20;99.90
21508;DHT22;10915;54.352;9.074;2023-10-09T14:38:08;14.20;99.90
21508;DHT22;10915;54.352;9.074;2023-10-09T14:40:41;14.20;99.90
21508;DHT22;10915;54.352;9.074;2023-10-09T14:43:08;14.20;99.90
21508;DHT22;10915;54.352;9.074;2023-10-09T14:45:37;14.10;99.90
21508;DHT22;10915;54.352;9.074;2023-10-09T14:48:03;14.10;99.90
21508;DHT22;10915;54.352;9.074;2023-10-09T14:50:28;14.20;99.90
21508;DHT22;10915;54.352;9.074;2023-10-09T14:52:54;14.20;99.90
21508;DHT22;10915;54.352;9.074;2023-10-09T14:55:19;14.10;99.90
21508;DHT22;10915;54.352;9.074;2023-10-09T14:57:52;14.10;99.90
21508;DHT22;10915;54.352;9.074;2023-10-09T15:00:18;14.10;99.90
21508;DHT22;10915;54.352;9.074;2023-10-09T15:02:49;14.10;99.90
21508;DHT22;10915;54.352;9.074;2023-10-09T15:05:16;14.10;99.90
21508;DHT22;10915;54.352;9.074;2023-10-09T15:07:41;14.00;99.90
21508;DHT22;10915;54.352;9.074;2023-10-09T15:10:08;14.10;99.90
21508;DHT22;10915;54.352;9.074;2023-10-09T15:12:35;14.00;99.90
21508;DHT22;10915;54.352;9.074;2023-10-09T15:15:06;14.10;99.90
21508;DHT22;10915;54.352;9.074;2023-10-09T15:17:42;14.10;99.90
21508;DHT22;10915;54.352;9.074;2023-10-09T15:20:14;14.10;99.90
21508;DHT22;10915;54.352;9.074;2023-10-09T15:22:44;14.20;99.90
21508;DHT22;10915;54.352;9.074;2023-10-09T15:25:10;14.10;99.90
21508;DHT22;10915;54.352;9.074;2023-10-09T15:27:43;14.10;99.90
21508;DHT22;10915;54.352;9.074;2023-10-09T15:30:09;14.10;99.90
21508;DHT22;10915;54.352;9.074;2023-10-09T15:32:40;14.00;99.90
21508;DHT22;10915;54.352;9.074;2023-10-09T15:35:07;13.90;99.90
21508;DHT22;10915;54.352;9.074;2023-10-09T15:37:36;13.90;99.90
21508;DHT22;10915;54.352;9.074;2023-10-09T15:40:01;14.00;99.90
21508;DHT22;10915;54.352;9.074;2023-10-09T15:42:40;14.00;99.90
21508;DHT22;10915;54.352;9.074;2023-10-09T15:45:06;13.90;99.90
21508;DHT22;10915;54.352;9.074;2023-10-09T15:47:32;13.90;99.90
21508;DHT22;10915;54.352;9.074;2023-10-09T15:50:02;14.00;99.90
21508;DHT22;10915;54.352;9.074;2023-10-09T15:52:29;14.00;99.90
21508;DHT22;10915;54.352;9.074;2023-10-09T15:54:55;14.00;99.90
21508;DHT22;10915;54.352;9.074;2023-10-09T15:57:21;14.00;99.90
21508;DHT22;10915;54.352;9.074;2023-10-09T15:59:47;13.90;99.90
21508;DHT22;10915;54.352;9.074;2023-10-09T16:02:15;13.80;99.90
21508;DHT22;10915;54.352;9.074;2023-10-09T16:04:42;13.70;99.90
21508;DHT22;10915;54.352;9.074;2023-10-09T16:07:08;13.70;99.90
21508;DHT22;10915;54.352;9.074;2023-10-09T16:09:35;13.80;99.90
21508;DHT22;10915;54.352;9.074;2023-10-09T16:12:08;13.90;99.90
21508;DHT22;10915;54.352;9.074;2023-10-09T16:14:36;13.80;99.90
21508;DHT22;10915;54.352;9.074;2023-10-09T16:17:02;13.80;99.90
21508;DHT22;10915;54.352;9.074;2023-10-09T16:19:27;13.90;99.90
21508;DHT22;10915;54.352;9.074;2023-10-09T16:21:58;13.80;99.90
21508;DHT22;10915;54.352;9.074;2023-10-09T16:24:30;13.80;99.90
21508;DHT22;10915;54.352;9.074;2023-10-09T16:26:58;13.70;99.90
21508;DHT22;10915;54.352;9.074;2023-10-09T16:29:24;13.60;99.90
21508;DHT22;10915;54.352;9.074;2023-10-09T16:31:50;13.60;99.90
21508;DHT22;10915;54.352;9.074;2023-10-09T16:34:19;13.70;99.90
21508;DHT22;10915;54.352;9.074;2023-10-09T16:36:45;13.60;99.90
21508;DHT22;10915;54.352;9.074;2023-10-09T16:39:10;13.50;99.90
21508;DHT22;10915;54.352;9.074;2023-10-09T16:41:45;13.50;99.90
21508;DHT22;10915;54.352;9.074;2023-10-09T16:44:11;13.50;99.90
21508;DHT22;10915;54.352;9.074;2023-10-09T16:46:38;13.50;99.90
21508;DHT22;10915;54.352;9.074;2023-10-09T16:49:05;13.60;99.90
21508;DHT22;10915;54.352;9.074;2023-10-09T16:51:30;13.70;99.90
21508;DHT22;10915;54.352;9.074;2023-10-09T16:53:56;13.80;99.90
21508;DHT22;10915;54.352;9.074;2023-10-09T16:56:22;13.70;99.90
21508;DHT22;10915;54.352;9.074;2023-10-09T16:58:49;13.80;99.90
21508;DHT22;10915;54.352;9.074;2023-10-09T17:01:18;13.70;99.90
21508;DHT22;10915;54.352;9.074;2023-10-09T17:03:48;13.70;99.90
21508;DHT22;10915;54.352;9.074;2023-10-09T17:06:21;13.80;99.90
21508;DHT22;10915;54.352;9.074;2023-10-09T17:08:47;13.70;99.90
21508;DHT22;10915;54.352;9.074;2023-10-09T19:23:35;13.00;99.90
21508;DHT22;10915;54.352;9.074;2023-10-09T19:26:20;12.90;99.90
21508;DHT22;10915;54.352;9.074;2023-10-09T19:29:18;12.90;99.90
21508;DHT22;10915;54.352;9.074;2023-10-09T19:32:23;12.90;99.90
21508;DHT22;10915;54.352;9.074;2023-10-09T19:38:03;12.70;99.90
21508;DHT22;10915;54.352;9.074;2023-10-09T19:44:08;12.70;99.90
21508;DHT22;10915;54.352;9.074;2023-10-09T20:14:46;12.70;99.90
21508;DHT22;10915;54.352;9.074;2023-10-09T20:21:38;12.60;99.90
21508;DHT22;10915;54.352;9.074;2023-10-09T20:39:27;12.50;99.90
21508;DHT22;10915;54.352;9.074;2023-10-09T20:41:55;12.50;99.90
21508;DHT22;10915;54.352;9.074;2023-10-09T20:44:21;12.50;99.90
21508;DHT22;10915;54.352;9.074;2023-10-09T20:53:20;12.50;99.90
21508;DHT22;10915;54.352;9.074;2023-10-09T20:55:49;12.50;99.90
21508;DHT22;10915;54.352;9.074;2023-10-09T22:11:03;13.40;99.90
21508;DHT22;10915;54.352;9.074;2023-10-09T23:32:13;13.50;99.90
21508;DHT22;10915;54.352;9.074;2023-10-09T23:42:11;13.50;99.90
21508;DHT22;10915;54.352;9.074;2023-10-09T23:44:40;13.40;99.90
21508;DHT22;10915;54.352;9.074;2023-10-09T23:47:06;13.30;99.90
21508;DHT22;10915;54.352;9.074;2023-10-09T23:49:36;13.30;99.90
21508;DHT22;10915;54.352;9.074;2023-10-09T23:52:06;13.20;99.90
21508;DHT22;10915;54.352;9.074;2023-10-09T23:54:32;13.10;99.90
21508;DHT22;10915;54.352;9.074;2023-10-09T23:56:59;13.10;99.90
21508;DHT22;10915;54.352;9.074;2023-10-09T23:59:25;13.10;99.90
